Flugplatz Hahnweide

EDST · Baden-Württemberg, Germany

METAR history EDST · Flugplatz Hahnweide

Below you see METARs of the last few days. Select a year to browse through older METARs, from the year 2007 onwards.

December 1, 2022

Time Code Weather Temp. Visibility Ceiling Wind METAR/SPECI
11:50
M
2 °C 10 km+ 1,100 ft 340° 340° 5 kt METAR EDDS 011050Z AUTO 34005KT 320V030 9999 OVC011 02/00 Q1022 NOSIG
11:20
M
2 °C 10 km+ 1,200 ft 340° 340° 5 kt METAR EDDS 011020Z AUTO 34005KT 300V360 9999 OVC012 02/00 Q1022 NOSIG
10:50
M
2 °C 10 km+ 1,200 ft 350° 350° 5 kt METAR EDDS 010950Z AUTO 35005KT 300V020 9999 OVC012 02/00 Q1022 NOSIG
10:20
M
2 °C 10 km+ 1,300 ft 350° 350° 5 kt METAR EDDS 010920Z AUTO 35005KT 310V030 9999 BKN013 OVC022 02/00 Q1022 BECMG SCT012 BKN020
09:50
M
2 °C 10 km+ 1,300 ft 360° 360° 6 kt METAR EDDS 010850Z AUTO 36006KT 320V020 9999 BKN013 OVC022 02/00 Q1022 BECMG SCT013 BKN022
09:20
M
2 °C 10 km+ 2,000 ft 360° 360° 5 kt METAR EDDS 010820Z AUTO 36005KT 320V030 9999 SCT013 OVC020 02/00 Q1022 NOSIG
08:50
M
2 °C 10 km+ 1,400 ft 340° 340° 4 kt METAR EDDS 010750Z AUTO 34004KT 310V040 9999 BKN014 OVC019 02/M00 Q1022 BECMG BKN015
08:20
M
2 °C 10 km+ 1,600 ft 360° 360° 3 kt METAR EDDS 010720Z AUTO 36003KT 330V050 9999 OVC016 02/M00 Q1022 NOSIG
07:50
M
2 °C 10 km+ 1,600 ft 020° 020° 4 kt METAR EDDS 010650Z AUTO 02004KT 350V050 9999 OVC016 02/M00 Q1022 NOSIG
07:20
M
2 °C 10 km+ 1,700 ft 020° 020° 4 kt METAR EDDS 010620Z AUTO 02004KT 9999 OVC017 02/M00 Q1021 NOSIG
06:50
M
2 °C 10 km+ 2,000 ft 030° 030° 4 kt METAR EDDS 010550Z AUTO 03004KT 9999 OVC020 02/M00 Q1021 NOSIG
06:20
M
2 °C 10 km+ 1,900 ft 030° 030° 4 kt METAR EDDS 010520Z AUTO 03004KT 350V080 9999 BKN019 OVC023 02/M00 Q1021 NOSIG
05:50
M
2 °C 10 km+ 1,800 ft 020° 020° 5 kt METAR EDDS 010450Z AUTO 02005KT 9999 OVC018 02/M00 Q1021
05:20
M
2 °C 10 km+ 1,500 ft 030° 030° 6 kt METAR EDDS 010420Z AUTO 03006KT 9999 OVC015 02/M00 Q1021
04:50
M
2 °C 10 km+ 1,200 ft 050° 050° 7 kt METAR EDDS 010350Z AUTO 05007KT 030V090 9999 BKN012 OVC018 02/M00 Q1021
04:20
M
2 °C 10 km+ 1,800 ft 050° 050° 5 kt METAR EDDS 010320Z AUTO 05005KT 9999 FEW012 OVC018 02/M00 Q1021
03:50
M
2 °C 10 km+ 1,900 ft 040° 040° 5 kt METAR EDDS 010250Z AUTO 04005KT 9999 OVC019 02/M00 Q1021
03:20
M
2 °C 10 km+ 1,700 ft 020° 020° 6 kt METAR EDDS 010220Z AUTO 02006KT 9999 OVC017 02/00 Q1021
02:50
M
2 °C 10 km+ 1,200 ft 040° 040° 6 kt METAR EDDS 010150Z AUTO 04006KT 9999 BKN012 OVC016 02/00 Q1021
02:20
M
3 °C 10 km+ 1,800 ft 060° 060° 6 kt METAR EDDS 010120Z AUTO 06006KT 9999 SCT012 OVC018 03/01 Q1021
01:50
M
3 °C 10 km+ 2,000 ft 040° 040° 5 kt METAR EDDS 010050Z AUTO 04005KT 9999 FEW012 BKN020 03/01 Q1021
01:20
M
3 °C 10 km+ 1,400 ft 040° 040° 3 kt METAR EDDS 010020Z AUTO 04003KT 010V070 9999 BKN014 OVC025 03/01 Q1021
00:50
M
3 °C 10 km+ 1,400 ft 030° 030° 5 kt METAR EDDS 302350Z AUTO 03005KT 9999 BKN014 OVC026 03/01 Q1021
00:20
M
3 °C 10 km+ 2,600 ft 030° 030° 5 kt METAR EDDS 302320Z AUTO 03005KT 9999 SCT014 OVC026 03/01 Q1021

November 30, 2022

Time Code Weather Temp. Visibility Ceiling Wind METAR/SPECI
23:50
M
3 °C 10 km+ 1,200 ft 030° 030° 6 kt METAR EDDS 302250Z AUTO 03006KT 9999 BKN012 OVC025 03/01 Q1021
23:20
M
3 °C 10 km+ 2,300 ft 040° 040° 6 kt METAR EDDS 302220Z AUTO 04006KT 9999 SCT013 OVC023 03/01 Q1021
22:50
M
3 °C 10 km+ 2,000 ft 050° 050° 8 kt METAR EDDS 302150Z AUTO 05008KT 9999 FEW010 OVC020 03/01 Q1021
22:20
M
3 °C 10 km+ 1,000 ft 060° 060° 7 kt METAR EDDS 302120Z AUTO 06007KT 9999 BKN010 BKN017 OVC021 03/02 Q1021
21:50
M
4 °C 10 km+ 1,100 ft 060° 060° 6 kt METAR EDDS 302050Z AUTO 06006KT 9999 BKN011 BKN019 OVC023 04/02 Q1021 NOSIG
21:20
M
4 °C 10 km+ 1,200 ft 060° 060° 7 kt METAR EDDS 302020Z AUTO 06007KT 9999 BKN012 OVC023 04/02 Q1021 NOSIG
20:50
M
4 °C 10 km+ 1,300 ft 080° 080° 4 kt METAR EDDS 301950Z AUTO 08004KT 040V110 9999 BKN013 OVC029 04/03 Q1021 TEMPO BKN012
20:20
M
5 °C 10 km+ 2,800 ft 040° 040° 5 kt METAR EDDS 301920Z AUTO 04005KT 9999 FEW018 OVC028 05/02 Q1021 NOSIG
19:50
V
5 °C 10 km+ 3,000 ft 070° 070° 4 kt METAR EDDS 301850Z AUTO 07004KT 9999 FEW017 BKN030 05/03 Q1021 NOSIG
19:20
M
5 °C 10 km+ 2,000 ft 050° 050° 6 kt METAR EDDS 301820Z AUTO 05006KT 9999 OVC020 05/02 Q1021 NOSIG
18:50
M
5 °C 10 km+ 2,100 ft 040° 040° 5 kt METAR EDDS 301750Z AUTO 04005KT 9999 OVC021 05/03 Q1021 NOSIG
18:20
M
5 °C 10 km+ 2,300 ft 030° 030° 4 kt METAR EDDS 301720Z AUTO 03004KT 9999 BKN023 05/03 Q1020 NOSIG
17:50
M
5 °C 10 km+ 2,100 ft 060° 060° 4 kt METAR EDDS 301650Z AUTO 06004KT 020V090 9999 BKN021 OVC026 05/03 Q1020 NOSIG
17:20
M
5 °C 10 km+ 1,900 ft 040° 040° 6 kt METAR EDDS 301620Z AUTO 04006KT 9999 FEW013 OVC019 05/03 Q1020 NOSIG
16:50
M
5 °C 10 km+ 2,000 ft 040° 040° 5 kt METAR EDDS 301550Z AUTO 04005KT 9999 FEW012 OVC020 05/04 Q1020 NOSIG
16:20
M
5 °C 10 km+ 2,200 ft 040° 040° 4 kt METAR EDDS 301520Z AUTO 04004KT 9999 FEW008 OVC022 05/04 Q1020 NOSIG
15:50
M
5 °C 10 km+ 1,800 ft 050° 050° 3 kt METAR EDDS 301450Z AUTO 05003KT 9999 SCT011 OVC018 05/04 Q1020 NOSIG
15:20
M
6 °C 10 km+ 1,100 ft 060° 060° 5 kt METAR EDDS 301420Z AUTO 06005KT 9999 BKN011 BKN015 OVC021 06/04 Q1020 NOSIG
14:50
M
6 °C 10 km+ 2,200 ft 060° 060° 5 kt METAR EDDS 301350Z AUTO 06005KT 9999 FEW012 BKN022 06/04 Q1020 NOSIG
14:20
M
6 °C 10 km+ 2,300 ft 040° 040° 5 kt METAR EDDS 301320Z AUTO 04005KT 9999 FEW014 OVC023 06/04 Q1020 NOSIG
13:50
M
6 °C 10 km+ 2,400 ft 040° 040° 5 kt METAR EDDS 301250Z AUTO 04005KT 9999 FEW012 OVC024 06/03 Q1020 NOSIG
13:20
M
6 °C 10 km+ 2,400 ft 040° 040° 4 kt METAR EDDS 301220Z AUTO 04004KT 9999 FEW010 OVC024 06/03 Q1020 NOSIG
12:50
M
6 °C 10 km+ 2,500 ft 050° 050° 4 kt METAR EDDS 301150Z AUTO 05004KT 340V070 9999 OVC025 06/03 Q1020 NOSIG
12:20
M
6 °C 10 km+ 1,900 ft 070° 070° 4 kt METAR EDDS 301120Z AUTO 07004KT 040V120 9999 FEW010 BKN019 OVC026 06/04 Q1020 NOSIG
11:50
M
6 °C 10 km+ 1,900 ft 070° 070° 5 kt METAR EDDS 301050Z AUTO 07005KT 9999 BKN019 OVC032 06/03 Q1020 NOSIG
11:20
M
5 °C 10 km+ 2,000 ft 080° 080° 4 kt METAR EDDS 301020Z AUTO 08004KT 9999 BKN020 OVC031 05/03 Q1020 NOSIG
10:50
M
5 °C 10 km+ 2,100 ft 080° 080° 4 kt METAR EDDS 300950Z AUTO 08004KT 050V110 9999 SCT007 BKN021 OVC027 05/03 Q1020 NOSIG
10:20
M
5 °C 10 km+ 2,900 ft 070° 070° 4 kt METAR EDDS 300920Z AUTO 07004KT 9999 FEW005 OVC029 05/04 Q1020 NOSIG
09:50
V
5 °C 9 km 3,000 ft Var Var 1 kt METAR EDDS 300850Z AUTO VRB01KT 9000 FEW016 OVC030 05/04 Q1020 NOSIG
09:20
M
5 °C 7 km 1,700 ft 080° 080° 4 kt METAR EDDS 300820Z AUTO 08004KT 7000 SCT011 BKN017 OVC029 05/04 Q1020 TEMPO BKN010
08:50
M
5 °C 8 km 1,600 ft 070° 070° 5 kt METAR EDDS 300750Z AUTO 07005KT 8000 FEW007 BKN016 OVC034 05/04 Q1020 TEMPO BKN014
08:20
I
5 °C 8 km 600 ft 070° 070° 3 kt METAR EDDS 300720Z AUTO 07003KT 050V110 8000 BKN006 05/04 Q1020 NOSIG
07:50
I
5 °C 10 km+ 700 ft 040° 040° 4 kt METAR EDDS 300650Z AUTO 04004KT 9999 BKN007 BKN018 05/04 Q1019 TEMPO SCT007
07:20
M
5 °C 9 km 1,400 ft 020° 020° 3 kt METAR EDDS 300620Z AUTO 02003KT 9000 SCT007 BKN014 OVC019 05/04 Q1019 NOSIG
06:50
I
5 °C 8 km 600 ft 020° 020° 4 kt METAR EDDS 300550Z AUTO 02004KT 8000 BKN006 OVC014 05/04 Q1019 NOSIG
06:20
I
5 °C 7 km 600 ft 020° 020° 3 kt METAR EDDS 300520Z AUTO 02003KT 340V050 7000 FEW003 BKN006 BKN012 05/05 Q1019 NOSIG
05:50
I
5 °C 7 km 700 ft 350° 350° 4 kt METAR EDDS 300450Z AUTO 35004KT 7000 -DZ FEW003 BKN007 05/05 Q1019
05:20
I
5 °C 7 km 700 ft 340° 340° 4 kt METAR EDDS 300420Z AUTO 34004KT 7000 -DZ FEW003 OVC007 05/05 Q1019
04:50
I
5 °C 6 km 700 ft 350° 350° 3 kt METAR EDDS 300350Z AUTO 35003KT 6000 -DZ SCT004 OVC007 05/05 Q1019
04:20
I
5 °C 6 km 700 ft 340° 340° 4 kt METAR EDDS 300320Z AUTO 34004KT 6000 -RADZ SCT003 BKN007 BKN017 05/05 Q1019
03:50
M
5 °C 5 km 1,100 ft 350° 350° 3 kt METAR EDDS 300250Z AUTO 35003KT 320V020 5000 -RA BR SCT003 BKN011 OVC033 05/05 Q1019
03:20
L
5 °C 5 km 400 ft 340° 340° 4 kt METAR EDDS 300220Z AUTO 34004KT 5000 BR BKN004 BKN011 OVC038 05/05 Q1019
02:50
L
5 °C 5 km 400 ft 340° 340° 3 kt METAR EDDS 300150Z AUTO 34003KT 5000 -RADZ BR BKN004 OVC026 05/05 Q1019
02:20
L
5 °C 5 km 400 ft 360° 360° 3 kt METAR EDDS 300120Z AUTO 36003KT 5000 -RADZ BR BKN004 05/05 Q1019
01:50
I
5 °C 5 km 600 ft 360° 360° 3 kt METAR EDDS 300050Z AUTO 36003KT 310V020 5000 -RADZ BR BKN006 BKN011 OVC024 05/05 Q1019
01:20
I
5 °C 6 km 600 ft 360° 360° 4 kt METAR EDDS 300020Z AUTO 36004KT 330V030 6000 -RADZ BKN006 BKN026 05/05 Q1019
00:50
I
5 °C 6 km 700 ft 350° 350° 5 kt METAR EDDS 292350Z AUTO 35005KT 6000 -RADZ BKN007 05/05 Q1019
00:20
I
5 °C 6 km 700 ft 350° 350° 5 kt METAR EDDS 292320Z AUTO 35005KT 310V010 6000 -RA BKN007 OVC010 05/05 Q1019

November 29, 2022

Time Code Weather Temp. Visibility Ceiling Wind METAR/SPECI
23:50
I
5 °C 7 km 800 ft 010° 010° 3 kt METAR EDDS 292250Z AUTO 01003KT 320V050 7000 -RA BKN008 BKN013 OVC019 05/05 Q1019
23:20
M
5 °C 8 km 1,300 ft 020° 020° 4 kt METAR EDDS 292220Z AUTO 02004KT 330V040 8000 SCT007 BKN013 OVC018 05/05 Q1019
22:50
I
6 °C 9 km 600 ft 010° 010° 3 kt METAR EDDS 292150Z AUTO 01003KT 320V060 9000 BKN006 BKN014 OVC024 06/05 Q1019
22:20
I
6 °C 9 km 600 ft 020° 020° 4 kt METAR EDDS 292120Z AUTO 02004KT 9000 BKN006 OVC018 06/05 Q1019
21:50
M
6 °C 9 km 2,000 ft 340° 340° 5 kt METAR EDDS 292050Z AUTO 34005KT 9000 SCT006 OVC020 06/05 Q1018 TEMPO BKN006
21:20
I
6 °C 10 km+ 600 ft 350° 350° 5 kt METAR EDDS 292020Z AUTO 35005KT 320V020 9999 BKN006 BKN012 OVC023 06/05 Q1018 NOSIG
20:50
I
6 °C 10 km+ 600 ft 350° 350° 5 kt METAR EDDS 291950Z AUTO 35005KT 320V030 9999 OVC006 06/05 Q1018 NOSIG
20:20
I
6 °C 9 km 500 ft 340° 340° 6 kt METAR EDDS 291920Z AUTO 34006KT 9000 BKN005 OVC008 06/05 Q1018 NOSIG
19:50
L
6 °C 10 km+ 400 ft 340° 340° 4 kt METAR EDDS 291850Z AUTO 34004KT 300V010 9999 BKN004 OVC010 06/05 Q1018 NOSIG
19:20
I
6 °C 10 km+ 500 ft 350° 350° 4 kt METAR EDDS 291820Z AUTO 35004KT 9999 BKN005 06/05 Q1018 BECMG BKN004
18:50
I
6 °C 10 km+ 600 ft 340° 340° 5 kt METAR EDDS 291750Z AUTO 34005KT 9999 -DZ BKN006 BKN012 OVC030 06/05 Q1018 NOSIG
18:20
I
6 °C 10 km+ 600 ft 360° 360° 4 kt METAR EDDS 291720Z AUTO 36004KT 330V050 9999 -RADZ BKN006 BKN030 06/05 Q1018 NOSIG
17:50
I
6 °C 10 km+ 600 ft 350° 350° 6 kt METAR EDDS 291650Z AUTO 35006KT 9999 -RADZ BKN006 BKN012 OVC024 06/05 Q1017 NOSIG
17:20
I
6 °C 10 km+ 600 ft 350° 350° 4 kt METAR EDDS 291620Z AUTO 35004KT 320V030 9999 -DZ BKN006 BKN029 06/06 Q1017 NOSIG
16:50
M
6 °C 10 km+ 2,800 ft 340° 340° 4 kt METAR EDDS 291550Z AUTO 34004KT 9999 -RADZ SCT007 BKN028 BKN033 06/05 Q1017 TEMPO BKN006
16:20
I
6 °C 10 km+ 600 ft 340° 340° 5 kt METAR EDDS 291520Z AUTO 34005KT 320V020 9999 -RADZ BKN006 BKN027 OVC035 06/05 Q1017 NOSIG
15:50
I
6 °C 10 km+ 600 ft 340° 340° 5 kt METAR EDDS 291450Z AUTO 34005KT 300V020 9999 -RADZ BKN006 BKN011 OVC034 06/06 Q1017 NOSIG
15:20
I
7 °C 10 km+ 600 ft 350° 350° 6 kt METAR EDDS 291420Z AUTO 35006KT 320V020 9999 -RADZ BKN006 07/06 Q1016 NOSIG
14:50
I
7 °C 10 km+ 600 ft 350° 350° 7 kt METAR EDDS 291350Z AUTO 35007KT 310V020 9999 -RADZ BKN006 BKN018 BKN026 07/06 Q1016 NOSIG
14:20
I
7 °C 10 km+ 600 ft 340° 340° 7 kt METAR EDDS 291320Z AUTO 34007KT 9999 -RADZ BKN006 BKN017 BKN028 07/06 Q1016 NOSIG
13:50
I
7 °C 10 km+ 600 ft 340° 340° 6 kt METAR EDDS 291250Z AUTO 34006KT 310V020 9999 -RADZ BKN006 BKN010 OVC029 07/06 Q1016 NOSIG
13:20
I
7 °C 10 km+ 600 ft 340° 340° 6 kt METAR EDDS 291220Z AUTO 34006KT 310V020 9999 -DZ BKN006 OVC010 07/06 Q1016 NOSIG
12:50
I
7 °C 10 km+ 600 ft 350° 350° 6 kt METAR EDDS 291150Z AUTO 35006KT 330V030 9999 BKN006 BKN010 07/06 Q1016 NOSIG
12:20
I
7 °C 9 km 500 ft 340° 340° 5 kt METAR EDDS 291120Z AUTO 34005KT 9000 BKN005 07/06 Q1016 REDZ NOSIG
11:50
I
7 °C 6 km 500 ft 330° 330° 5 kt METAR EDDS 291050Z AUTO 33005KT 6000 BKN005 OVC009 07/06 Q1016 NOSIG
11:20
I
7 °C 10 km+ 500 ft 320° 320° 6 kt METAR EDDS 291020Z AUTO 32006KT 9999 BKN005 BKN009 07/06 Q1016 NOSIG
10:50
I
7 °C 10 km+ 600 ft 320° 320° 4 kt METAR EDDS 290950Z AUTO 32004KT 290V350 9999 BKN006 OVC009 07/06 Q1016 NOSIG

We and third parties follow your internet behavior on our website with cookies. If you continue, we assume you agree with our cookie policy.